createdAt,value
2022-12-13T00:02:15.166Z,-5.42
2022-12-13T00:07:19.593Z,-5.35
2022-12-13T00:12:22.546Z,-5.37
2022-12-13T00:17:26.713Z,-5.44
2022-12-13T00:22:31.033Z,-5.37
2022-12-13T00:27:34.012Z,-5.38
2022-12-13T00:32:36.902Z,-5.54
2022-12-13T00:37:41.179Z,-5.42
2022-12-13T00:42:44.104Z,-5.46
2022-12-13T00:47:48.172Z,-5.41
2022-12-13T00:52:52.483Z,-5.41
2022-12-13T00:57:55.420Z,-5.56
2022-12-13T01:02:58.409Z,-5.47
2022-12-13T01:08:02.808Z,-5.49
2022-12-13T01:13:05.754Z,-5.63
2022-12-13T01:18:09.028Z,-5.51
2022-12-13T01:23:13.299Z,-5.43
2022-12-13T01:28:16.214Z,-5.13
2022-12-13T01:33:19.158Z,-5.29
2022-12-13T01:38:26.256Z,-5.38
2022-12-13T01:43:49.837Z,-5.39
2022-12-13T01:49:00.204Z,-5.52
2022-12-13T01:54:07.637Z,-5.48
2022-12-13T01:59:13.818Z,-5.48
2022-12-13T02:04:20.206Z,-5.56
2022-12-13T02:09:24.928Z,-5.78
2022-12-13T02:14:27.851Z,-5.56
2022-12-13T02:20:02.679Z,-5.69
2022-12-13T02:25:36.809Z,-5.54
2022-12-13T02:30:43.948Z,-5.82
2022-12-13T02:35:53.842Z,-5.92
2022-12-13T02:41:05.403Z,-6.00
2022-12-13T02:46:12.601Z,-5.96
2022-12-13T02:51:16.835Z,-6.06
2022-12-13T02:56:20.212Z,-6.14
2022-12-13T03:01:39.952Z,-6.18
2022-12-13T03:06:56.180Z,-6.32
2022-12-13T03:12:28.228Z,-6.66
2022-12-13T03:17:39.005Z,-6.58
2022-12-13T03:22:41.918Z,-6.85
2022-12-13T03:27:45.137Z,-6.81
2022-12-13T03:32:49.484Z,-6.74
2022-12-13T03:37:52.626Z,-6.77
2022-12-13T03:42:55.716Z,-7.10
2022-12-13T03:47:59.973Z,-7.28
2022-12-13T03:53:04.169Z,-7.33
2022-12-13T03:58:08.133Z,-7.29
2022-12-13T04:03:12.866Z,-7.02
2022-12-13T04:08:21.761Z,-7.51
2022-12-13T04:13:34.253Z,-7.23
2022-12-13T04:18:38.542Z,-7.21
2022-12-13T04:23:41.483Z,-7.27
2022-12-13T04:28:49.363Z,-7.21
2022-12-13T04:33:56.894Z,-7.62
2022-12-13T04:39:00.643Z,-7.72
2022-12-13T04:44:04.908Z,-7.91
2022-12-13T04:49:09.232Z,-7.90
2022-12-13T04:54:24.501Z,-8.12
2022-12-13T04:59:27.720Z,-8.01
2022-12-13T05:04:33.381Z,-8.12
2022-12-13T05:09:37.175Z,-8.19
2022-12-13T05:14:40.044Z,-8.41
2022-12-13T05:19:44.435Z,-8.42
2022-12-13T05:24:47.353Z,-8.57
2022-12-13T05:29:50.286Z,-8.61
2022-12-13T05:34:54.586Z,-8.97
2022-12-13T05:39:57.454Z,-9.13
2022-12-13T05:45:00.342Z,-9.00
2022-12-13T05:50:05.184Z,-9.21
2022-12-13T05:55:08.628Z,-9.35
2022-12-13T06:00:30.092Z,-9.60
2022-12-13T06:05:35.478Z,-9.47
2022-12-13T06:10:39.012Z,-9.76
2022-12-13T06:15:44.435Z,-9.52
2022-12-13T06:20:57.245Z,-9.87
2022-12-13T06:26:00.399Z,-10.09
2022-12-13T06:31:05.020Z,-10.02
2022-12-13T06:36:10.324Z,-9.83
2022-12-13T06:41:14.761Z,-10.01
2022-12-13T06:46:17.754Z,-10.13
2022-12-13T06:51:22.434Z,-10.01
2022-12-13T06:56:26.081Z,-10.07
2022-12-13T07:01:37.069Z,-10.13
2022-12-13T07:06:42.367Z,-10.02
2022-12-13T07:11:50.005Z,-9.96
2022-12-13T07:17:01.420Z,-9.83
2022-12-13T07:22:08.320Z,-10.01
2022-12-13T07:27:11.246Z,-9.74
2022-12-13T07:32:14.430Z,-9.83
2022-12-13T07:37:30.294Z,-10.07
2022-12-13T07:42:34.206Z,-9.89
2022-12-13T07:47:37.751Z,-9.90
2022-12-13T07:52:42.185Z,-9.70
2022-12-13T07:57:45.111Z,-9.66
2022-12-13T08:02:48.036Z,-9.68
2022-12-13T08:07:52.496Z,-9.56
2022-12-13T08:12:55.462Z,-9.77
2022-12-13T08:18:00.771Z,-9.74
2022-12-13T08:23:05.060Z,-9.40
2022-12-13T08:28:08.128Z,-9.46
2022-12-13T08:33:11.117Z,-9.17
2022-12-13T08:38:15.518Z,-8.77
2022-12-13T08:43:26.799Z,-8.33
2022-12-13T08:48:30.019Z,-8.37
2022-12-13T08:53:41.180Z,-8.25
2022-12-13T08:58:44.459Z,-8.41
2022-12-13T09:03:47.390Z,-8.42
2022-12-13T09:08:54.575Z,-8.69
2022-12-13T09:14:01.271Z,-8.54
2022-12-13T09:19:06.690Z,-8.07
2022-12-13T09:24:36.493Z,-8.09
2022-12-13T09:29:40.166Z,-8.49
2022-12-13T09:34:43.159Z,-8.22
2022-12-13T09:39:55.128Z,-7.98
2022-12-13T09:45:03.782Z,-8.04
2022-12-13T09:50:15.153Z,-7.77
2022-12-13T09:55:23.826Z,-7.46
2022-12-13T10:00:36.142Z,-7.35
2022-12-13T10:05:40.651Z,-7.34
2022-12-13T10:10:45.491Z,-7.47
2022-12-13T10:15:52.106Z,-7.04
2022-12-13T10:20:56.191Z,-6.89
2022-12-13T10:26:02.903Z,-6.70
2022-12-13T10:31:06.804Z,-6.68
2022-12-13T10:36:16.459Z,-6.31
2022-12-13T10:41:32.764Z,-6.26
2022-12-13T10:46:38.237Z,-6.17
2022-12-13T10:51:41.933Z,-6.09
2022-12-13T10:56:49.439Z,-5.92
2022-12-13T11:01:55.089Z,-5.70
2022-12-13T11:06:59.887Z,-5.70
2022-12-13T11:12:12.901Z,-5.53
2022-12-13T11:17:20.744Z,-5.84
2022-12-13T11:22:26.977Z,-5.60
2022-12-13T11:27:48.156Z,-5.48
2022-12-13T11:33:10.547Z,-5.41
2022-12-13T11:38:22.509Z,-5.33
2022-12-13T11:43:32.906Z,-5.50
2022-12-13T11:48:43.775Z,-5.40
2022-12-13T11:53:56.334Z,-5.55
2022-12-13T11:59:17.375Z,-5.41
2022-12-13T12:04:33.020Z,-5.45
2022-12-13T12:09:40.011Z,-5.54
2022-12-13T12:14:52.981Z,-5.84
2022-12-13T12:19:58.469Z,-5.87
2022-12-13T12:25:23.050Z,-5.90
2022-12-13T12:30:35.334Z,-6.16
2022-12-13T12:35:59.535Z,-6.04
2022-12-13T12:41:29.642Z,-6.34
2022-12-13T12:47:08.631Z,-6.10
2022-12-13T12:52:21.357Z,-6.53
2022-12-13T12:57:32.077Z,-6.28
2022-12-13T13:02:44.448Z,-6.24
2022-12-13T13:07:51.777Z,-6.28
2022-12-13T13:13:12.490Z,-6.62
2022-12-13T13:18:46.115Z,-6.69
2022-12-13T13:23:49.354Z,-6.61
2022-12-13T13:28:52.621Z,-6.38
2022-12-13T13:33:57.196Z,-6.40
2022-12-13T13:39:01.280Z,-6.51
2022-12-13T13:44:55.269Z,-6.56
2022-12-13T13:50:11.096Z,-6.53
2022-12-13T13:55:44.880Z,-6.70
2022-12-13T14:01:28.496Z,-6.69
2022-12-13T14:07:13.695Z,-7.06
2022-12-13T14:13:02.948Z,-6.91
2022-12-13T14:18:43.397Z,-7.06
2022-12-13T14:24:00.191Z,-6.91
2022-12-13T14:29:11.556Z,-6.87
2022-12-13T14:34:23.402Z,-6.84
2022-12-13T14:39:29.391Z,-6.98
2022-12-13T14:44:35.288Z,-7.06
2022-12-13T14:49:42.016Z,-7.06
2022-12-13T14:54:58.463Z,-7.17
2022-12-13T15:00:25.832Z,-7.27
2022-12-13T15:05:31.378Z,-7.30
2022-12-13T15:10:40.715Z,-7.39
2022-12-13T15:15:45.072Z,-7.52
2022-12-13T15:20:49.904Z,-7.67
2022-12-13T15:26:00.183Z,-7.74
2022-12-13T15:31:06.872Z,-7.79
2022-12-13T15:36:14.558Z,-7.84
2022-12-13T15:41:19.758Z,-7.99
2022-12-13T15:46:27.749Z,-7.93
2022-12-13T15:51:31.449Z,-8.07
2022-12-13T15:56:36.534Z,-8.04
2022-12-13T16:01:41.123Z,-8.25
2022-12-13T16:06:52.697Z,-8.60
2022-12-13T16:11:58.455Z,-8.49
2022-12-13T16:17:08.523Z,-8.76
2022-12-13T16:22:11.796Z,-9.15
2022-12-13T16:27:14.763Z,-8.86
2022-12-13T16:32:19.112Z,-9.17
2022-12-13T16:37:27.453Z,-8.99
2022-12-13T16:42:31.739Z,-8.93
2022-12-13T16:47:41.881Z,-9.19
2022-12-13T16:52:51.342Z,-9.29
2022-12-13T16:57:58.973Z,-9.15
2022-12-13T17:03:03.908Z,-9.28
2022-12-13T17:08:07.042Z,-9.29
2022-12-13T17:13:10.041Z,-9.42
2022-12-13T17:18:14.389Z,-9.65
2022-12-13T17:23:18.643Z,-9.64
2022-12-13T17:28:21.630Z,-9.66
2022-12-13T17:33:26.250Z,-9.57
2022-12-13T17:38:29.475Z,-9.70
2022-12-13T17:43:35.239Z,-9.69
2022-12-13T17:48:41.293Z,-9.79
2022-12-13T17:53:45.519Z,-9.92
2022-12-13T17:58:48.545Z,-9.83
2022-12-13T18:03:55.839Z,-9.85
2022-12-13T18:08:58.920Z,-9.90
2022-12-13T18:14:02.089Z,-10.09
2022-12-13T18:19:07.884Z,-10.43
2022-12-13T18:24:12.642Z,-10.17
2022-12-13T18:29:15.655Z,-10.30
2022-12-13T18:34:19.928Z,-10.29
2022-12-13T18:39:22.992Z,-10.41
2022-12-13T18:44:28.251Z,-10.49
2022-12-13T18:49:32.496Z,-10.57
2022-12-13T18:54:35.509Z,-10.71
2022-12-13T18:59:38.498Z,-10.58
2022-12-13T19:04:54.828Z,-10.65
2022-12-13T19:09:58.703Z,-10.61
2022-12-13T19:15:02.470Z,-11.05
2022-12-13T19:20:08.408Z,-11.02
2022-12-13T19:25:11.495Z,-10.86
2022-12-13T19:30:14.772Z,-10.96
2022-12-13T19:35:19.195Z,-11.06
2022-12-13T19:40:22.308Z,-10.88
2022-12-13T19:45:25.263Z,-10.99
2022-12-13T19:50:29.792Z,-11.15
2022-12-13T19:55:33.334Z,-11.14
2022-12-13T20:00:36.289Z,-11.34
2022-12-13T20:05:45.481Z,-11.42
2022-12-13T20:10:48.776Z,-11.43
2022-12-13T20:15:51.902Z,-11.47
2022-12-13T20:21:12.933Z,-11.48
2022-12-13T20:26:18.097Z,-11.58
2022-12-13T20:31:23.012Z,-11.58
2022-12-13T20:36:28.961Z,-11.50
2022-12-13T20:41:34.215Z,-11.56
2022-12-13T20:46:37.638Z,-11.61
2022-12-13T20:51:42.920Z,-11.61
2022-12-13T20:56:45.865Z,-11.64
2022-12-13T21:01:49.258Z,-12.01
2022-12-13T21:06:53.672Z,-11.92
2022-12-13T21:11:56.984Z,-11.90
2022-12-13T21:17:01.302Z,-11.94
2022-12-13T21:22:05.568Z,-11.80
2022-12-13T21:27:08.523Z,-11.88
2022-12-13T21:32:11.442Z,-11.79
2022-12-13T21:37:17.639Z,-11.95
2022-12-13T21:42:20.550Z,-11.90
2022-12-13T21:47:23.699Z,-11.92
2022-12-13T21:52:27.973Z,-11.87
2022-12-13T21:57:48.129Z,-11.82
2022-12-13T22:02:51.000Z,-11.91
2022-12-13T22:07:55.231Z,-12.15
2022-12-13T22:12:58.183Z,-12.07
2022-12-13T22:18:01.029Z,-11.82
2022-12-13T22:23:05.274Z,-11.97
2022-12-13T22:28:08.177Z,-12.33
2022-12-13T22:33:11.071Z,-12.05
2022-12-13T22:38:15.379Z,-12.07
2022-12-13T22:43:20.698Z,-12.07
2022-12-13T22:48:24.233Z,-12.26
2022-12-13T22:53:29.082Z,-12.06
2022-12-13T22:58:32.321Z,-11.99
2022-12-13T23:03:35.296Z,-12.12
2022-12-13T23:08:43.411Z,-11.86
2022-12-13T23:13:48.296Z,-11.97
2022-12-13T23:19:05.197Z,-12.01
2022-12-13T23:24:17.937Z,-11.96
2022-12-13T23:29:20.953Z,-11.84
2022-12-13T23:34:23.886Z,-11.76
2022-12-13T23:39:28.299Z,-11.52
2022-12-13T23:44:31.351Z,-11.57
2022-12-13T23:49:34.224Z,-11.52
2022-12-13T23:54:38.528Z,-11.58
2022-12-13T23:59:41.442Z,-12.21
